createdAt,value
2023-01-15T00:02:50.054Z,11.31
2023-01-15T00:07:52.247Z,11.32
2023-01-15T00:12:53.973Z,11.36
2023-01-15T00:17:55.719Z,11.39
2023-01-15T00:22:57.371Z,11.42
2023-01-15T00:28:01.592Z,11.43
2023-01-15T00:33:03.597Z,11.43
2023-01-15T00:38:05.268Z,11.43
2023-01-15T00:43:06.935Z,11.39
2023-01-15T00:48:09.220Z,11.36
2023-01-15T00:53:11.372Z,11.25
2023-01-15T00:58:13.082Z,11.15
2023-01-15T01:03:14.821Z,11.05
2023-01-15T01:08:17.401Z,10.97
2023-01-15T01:13:19.156Z,10.91
2023-01-15T01:18:20.863Z,10.82
2023-01-15T01:23:24.399Z,10.75
2023-01-15T01:28:26.059Z,10.71
2023-01-15T01:33:27.924Z,10.60
2023-01-15T01:38:29.712Z,10.51
2023-01-15T01:43:50.128Z,10.49
2023-01-15T01:49:06.485Z,10.45
2023-01-15T01:54:10.833Z,10.39
2023-01-15T01:59:12.992Z,10.36
2023-01-15T02:04:17.914Z,10.31
2023-01-15T02:09:20.013Z,10.28
2023-01-15T02:14:39.029Z,10.22
2023-01-15T02:19:52.828Z,10.16
2023-01-15T02:25:02.780Z,10.12
2023-01-15T02:30:12.016Z,10.04
2023-01-15T02:35:38.783Z,9.99
2023-01-15T02:40:45.862Z,9.89
2023-01-15T02:45:51.722Z,9.79
2023-01-15T02:51:02.983Z,9.64
2023-01-15T02:56:11.866Z,9.53
2023-01-15T03:01:26.352Z,9.33
2023-01-15T03:06:33.950Z,9.20
2023-01-15T03:11:44.251Z,9.16
2023-01-15T03:16:52.713Z,9.09
2023-01-15T03:22:12.698Z,8.99
2023-01-15T03:27:15.547Z,8.88
2023-01-15T03:32:22.672Z,8.83
2023-01-15T03:37:27.881Z,8.80
2023-01-15T03:42:43.285Z,8.73
2023-01-15T03:47:58.774Z,8.64
2023-01-15T03:53:09.193Z,8.64
2023-01-15T03:58:47.428Z,8.62
2023-01-15T04:03:54.783Z,8.60
2023-01-15T04:09:00.332Z,8.63
2023-01-15T04:14:05.023Z,8.62
2023-01-15T04:19:13.866Z,8.71
2023-01-15T04:24:36.241Z,8.81
2023-01-15T04:29:38.661Z,8.85
2023-01-15T04:34:40.592Z,9.00
2023-01-15T04:39:42.531Z,9.14
2023-01-15T04:44:44.259Z,9.18
2023-01-15T04:49:45.948Z,9.27
2023-01-15T04:54:47.588Z,9.40
2023-01-15T04:59:49.337Z,9.47
2023-01-15T05:04:51.134Z,9.61
2023-01-15T05:09:54.891Z,9.74
2023-01-15T05:14:56.596Z,9.82
2023-01-15T05:19:58.219Z,9.87
2023-01-15T05:25:00.003Z,9.92
2023-01-15T05:30:01.885Z,9.98
2023-01-15T05:35:03.787Z,10.04
2023-01-15T05:40:06.066Z,10.17
2023-01-15T05:45:08.492Z,10.28
2023-01-15T05:50:10.850Z,10.42
2023-01-15T05:55:12.587Z,10.53
2023-01-15T06:00:14.774Z,10.63
2023-01-15T06:05:20.192Z,10.75
2023-01-15T06:10:21.870Z,10.90
2023-01-15T06:15:23.511Z,11.10
2023-01-15T06:20:33.755Z,11.35
2023-01-15T06:25:37.189Z,11.52
2023-01-15T06:30:40.185Z,11.62
2023-01-15T06:35:41.905Z,11.75
2023-01-15T06:40:43.986Z,11.90
2023-01-15T06:46:04.808Z,12.02
2023-01-15T06:51:06.523Z,12.08
2023-01-15T06:56:08.523Z,12.16
2023-01-15T07:01:12.221Z,12.21
2023-01-15T07:06:14.170Z,12.30
2023-01-15T07:11:17.693Z,12.37
2023-01-15T07:16:28.530Z,12.37
2023-01-15T07:21:30.616Z,12.40
2023-01-15T07:26:32.750Z,12.44
2023-01-15T07:31:34.682Z,12.48
2023-01-15T07:36:37.418Z,12.44
2023-01-15T07:41:57.889Z,12.43
2023-01-15T07:47:18.077Z,12.44
2023-01-15T07:52:22.118Z,12.48
2023-01-15T07:57:24.274Z,12.48
2023-01-15T08:02:27.429Z,12.52
2023-01-15T08:07:29.160Z,12.50
2023-01-15T08:12:49.394Z,12.51
2023-01-15T08:17:51.738Z,12.51
2023-01-15T08:22:53.934Z,12.59
2023-01-15T08:27:56.586Z,12.58
2023-01-15T08:33:00.503Z,12.58
2023-01-15T08:38:08.952Z,12.59
2023-01-15T08:43:10.662Z,12.64
2023-01-15T08:48:12.318Z,12.65
2023-01-15T08:53:14.152Z,12.70
2023-01-15T08:58:17.014Z,12.68
2023-01-15T09:03:19.288Z,12.63
2023-01-15T09:08:20.952Z,12.39
2023-01-15T09:13:22.759Z,12.20
2023-01-15T09:18:24.519Z,11.37
2023-01-15T09:23:26.300Z,10.32
2023-01-15T09:28:32.731Z,9.88
2023-01-15T09:33:34.580Z,9.63
2023-01-15T09:38:36.373Z,9.41
2023-01-15T09:43:59.505Z,9.31
2023-01-15T09:49:22.736Z,9.20
2023-01-15T09:55:03.532Z,8.85
2023-01-15T10:00:06.715Z,8.58
2023-01-15T10:05:23.685Z,8.41
2023-01-15T10:10:33.948Z,8.24
2023-01-15T10:15:47.479Z,8.09
2023-01-15T10:20:53.122Z,8.11
2023-01-15T10:26:16.754Z,8.11
2023-01-15T10:31:25.284Z,8.09
2023-01-15T10:36:55.060Z,7.99
2023-01-15T10:42:05.657Z,7.94
2023-01-15T10:47:12.587Z,7.78
2023-01-15T10:52:37.795Z,7.64
2023-01-15T10:58:10.208Z,7.64
2023-01-15T11:03:18.266Z,7.47
2023-01-15T11:14:16.231Z,7.39
2023-01-15T11:19:37.616Z,7.23
2023-01-15T11:24:48.797Z,7.15
2023-01-15T11:30:02.432Z,7.10
2023-01-15T11:35:18.393Z,7.04
2023-01-15T11:40:24.383Z,7.08
2023-01-15T11:45:45.246Z,7.12
2023-01-15T11:50:52.049Z,7.22
2023-01-15T11:56:06.568Z,7.20
2023-01-15T12:01:09.321Z,7.20
2023-01-15T12:06:14.468Z,7.19
2023-01-15T12:11:38.535Z,7.24
2023-01-15T12:16:48.874Z,7.24
2023-01-15T12:22:17.706Z,7.31
2023-01-15T12:27:57.295Z,7.41
2023-01-15T12:33:14.608Z,7.29
2023-01-15T12:38:42.415Z,7.24
2023-01-15T12:44:11.374Z,7.09
2023-01-15T12:49:25.369Z,6.83
2023-01-15T12:54:39.178Z,6.66
2023-01-15T13:00:11.087Z,6.57
2023-01-15T13:05:36.670Z,6.47
2023-01-15T13:10:40.745Z,6.32
2023-01-15T13:16:03.008Z,6.21
2023-01-15T13:21:14.064Z,6.07
2023-01-15T13:26:34.777Z,5.98
2023-01-15T13:31:53.468Z,5.93
2023-01-15T13:37:02.939Z,5.93
2023-01-15T13:42:24.887Z,5.98
2023-01-15T13:47:32.318Z,5.89
2023-01-15T13:52:36.947Z,5.80
2023-01-15T13:57:41.479Z,5.76
2023-01-15T14:02:52.426Z,5.67
2023-01-15T14:07:54.413Z,5.64
2023-01-15T14:12:56.055Z,5.61
2023-01-15T14:18:36.835Z,5.60
2023-01-15T14:23:44.300Z,5.61
2023-01-15T14:29:03.180Z,5.57
2023-01-15T14:34:17.114Z,5.45
2023-01-15T14:39:29.013Z,5.40
2023-01-15T14:44:33.523Z,5.39
2023-01-15T14:49:50.004Z,5.49
2023-01-15T14:54:53.689Z,5.48
2023-01-15T15:00:00.983Z,5.49
2023-01-15T15:05:08.852Z,5.41
2023-01-15T15:10:17.223Z,5.48
2023-01-15T15:15:24.805Z,5.47
2023-01-15T15:20:39.475Z,5.50
2023-01-15T15:25:43.057Z,5.46
2023-01-15T15:30:46.446Z,5.45
2023-01-15T15:35:52.323Z,5.39
2023-01-15T15:41:06.025Z,5.34
2023-01-15T15:46:43.089Z,5.38
2023-01-15T15:51:50.821Z,5.36
2023-01-15T15:57:11.980Z,5.29
2023-01-15T16:02:21.295Z,5.27
2023-01-15T16:07:26.928Z,5.26
2023-01-15T16:12:31.288Z,5.39
2023-01-15T16:17:34.073Z,5.50
2023-01-15T16:22:35.675Z,5.53
2023-01-15T16:27:37.345Z,5.50
2023-01-15T16:32:40.371Z,5.49
2023-01-15T16:37:42.932Z,5.50
2023-01-15T16:42:44.739Z,5.54
2023-01-15T16:48:03.021Z,5.56
2023-01-15T16:53:25.913Z,5.64
2023-01-15T16:58:36.844Z,5.73
2023-01-15T17:03:41.063Z,5.75
2023-01-15T17:08:48.302Z,5.77
2023-01-15T17:13:50.764Z,5.76
2023-01-15T17:18:52.600Z,5.81
2023-01-15T17:23:56.593Z,5.83
2023-01-15T17:28:58.341Z,5.86
2023-01-15T17:34:02.694Z,5.88
2023-01-15T17:39:04.618Z,5.86
2023-01-15T17:44:06.845Z,5.88
2023-01-15T17:49:08.671Z,5.75
2023-01-15T17:54:10.422Z,5.59
2023-01-15T17:59:32.354Z,5.54
2023-01-15T18:04:55.913Z,5.49
2023-01-15T18:09:59.362Z,5.50
2023-01-15T18:15:01.229Z,5.47
2023-01-15T18:20:03.720Z,5.50
2023-01-15T18:25:06.595Z,5.49
2023-01-15T18:30:11.401Z,5.51
2023-01-15T18:35:14.700Z,5.47
2023-01-15T18:40:16.481Z,5.41
2023-01-15T18:45:36.927Z,5.37
2023-01-15T18:50:38.623Z,5.38
2023-01-15T18:55:40.637Z,5.37
2023-01-15T19:00:42.348Z,5.33
2023-01-15T19:05:44.308Z,5.28
2023-01-15T19:10:45.949Z,5.23
2023-01-15T19:16:06.320Z,5.14
2023-01-15T19:21:10.240Z,5.09
2023-01-15T19:26:12.267Z,5.00
2023-01-15T19:31:32.838Z,4.98
2023-01-15T19:36:35.345Z,4.95
2023-01-15T19:41:55.578Z,4.95
2023-01-15T19:47:16.005Z,4.93
2023-01-15T19:52:35.890Z,4.95
2023-01-15T19:57:38.326Z,4.96
2023-01-15T20:02:40.390Z,4.90
2023-01-15T20:07:43.344Z,4.89
2023-01-15T20:13:04.021Z,4.88
2023-01-15T20:18:06.141Z,4.82
2023-01-15T20:23:08.175Z,4.78
2023-01-15T20:28:09.968Z,4.79
2023-01-15T20:33:12.757Z,4.78
2023-01-15T20:38:14.587Z,4.78
2023-01-15T20:43:35.064Z,4.78
2023-01-15T20:48:55.414Z,4.74
2023-01-15T20:53:58.976Z,4.71
2023-01-15T20:59:00.612Z,4.73
2023-01-15T21:04:02.215Z,4.73
2023-01-15T21:09:03.964Z,4.74
2023-01-15T21:14:05.804Z,4.73
2023-01-15T21:19:07.417Z,4.72
2023-01-15T21:24:09.208Z,4.72
2023-01-15T21:29:10.970Z,4.74
2023-01-15T21:34:12.756Z,4.69
2023-01-15T21:39:16.912Z,4.67
2023-01-15T21:44:35.698Z,4.64
2023-01-15T21:49:38.089Z,4.64
2023-01-15T21:54:40.575Z,4.63
2023-01-15T21:59:42.552Z,4.49
2023-01-15T22:04:44.226Z,4.49
2023-01-15T22:09:46.093Z,4.58
2023-01-15T22:14:49.159Z,4.58
2023-01-15T22:19:51.362Z,4.62
2023-01-15T22:24:53.251Z,4.58
2023-01-15T22:29:54.953Z,4.59
2023-01-15T22:34:56.703Z,4.64
2023-01-15T22:39:58.467Z,4.65
2023-01-15T22:45:01.028Z,4.68
2023-01-15T22:50:02.718Z,4.66
2023-01-15T22:55:05.073Z,4.64
2023-01-15T23:00:07.826Z,4.63
2023-01-15T23:05:10.567Z,4.64
2023-01-15T23:10:13.183Z,4.67
2023-01-15T23:15:16.248Z,4.71
2023-01-15T23:20:18.021Z,4.72
2023-01-15T23:25:19.721Z,4.77
2023-01-15T23:30:21.502Z,4.86
2023-01-15T23:35:23.416Z,4.91
2023-01-15T23:40:25.118Z,4.95
2023-01-15T23:45:45.479Z,4.94
2023-01-15T23:50:47.217Z,4.95
2023-01-15T23:55:48.814Z,4.94
